sensor_id;sensor_type;location;lat;lon;timestamp;P1;durP1;ratioP1;P2;durP2;ratioP2
48945;SDS011;34999;50.940;3.998;2024-01-30T00:00:06;10.43;;;8.53;;
48945;SDS011;34999;50.940;3.998;2024-01-30T00:02:35;14.07;;;8.23;;
48945;SDS011;34999;50.940;3.998;2024-01-30T00:05:04;13.50;;;7.60;;
48945;SDS011;34999;50.940;3.998;2024-01-30T00:07:33;11.73;;;8.57;;
48945;SDS011;34999;50.940;3.998;2024-01-30T00:10:01;12.37;;;7.90;;
48945;SDS011;34999;50.940;3.998;2024-01-30T00:12:33;10.97;;;8.13;;
48945;SDS011;34999;50.940;3.998;2024-01-30T00:15:02;10.90;;;8.30;;
48945;SDS011;34999;50.940;3.998;2024-01-30T00:17:31;11.03;;;8.30;;
48945;SDS011;34999;50.940;3.998;2024-01-30T00:20:00;10.20;;;8.03;;
48945;SDS011;34999;50.940;3.998;2024-01-30T00:22:31;11.77;;;7.50;;
48945;SDS011;34999;50.940;3.998;2024-01-30T00:25:00;9.00;;;7.77;;
48945;SDS011;34999;50.940;3.998;2024-01-30T00:27:28;12.73;;;8.30;;
48945;SDS011;34999;50.940;3.998;2024-01-30T00:29:58;9.63;;;7.97;;
48945;SDS011;34999;50.940;3.998;2024-01-30T00:32:26;10.77;;;7.90;;
48945;SDS011;34999;50.940;3.998;2024-01-30T00:34:55;8.10;;;7.20;;
48945;SDS011;34999;50.940;3.998;2024-01-30T00:37:23;11.33;;;8.40;;
48945;SDS011;34999;50.940;3.998;2024-01-30T00:39:52;12.50;;;7.73;;
48945;SDS011;34999;50.940;3.998;2024-01-30T00:42:20;10.67;;;7.60;;
48945;SDS011;34999;50.940;3.998;2024-01-30T00:44:51;15.87;;;8.07;;
48945;SDS011;34999;50.940;3.998;2024-01-30T00:47:20;9.43;;;7.70;;
48945;SDS011;34999;50.940;3.998;2024-01-30T00:49:49;9.17;;;8.00;;
48945;SDS011;34999;50.940;3.998;2024-01-30T00:52:17;10.33;;;7.63;;
48945;SDS011;34999;50.940;3.998;2024-01-30T00:54:46;8.63;;;7.70;;
48945;SDS011;34999;50.940;3.998;2024-01-30T00:57:14;9.73;;;7.83;;
48945;SDS011;34999;50.940;3.998;2024-01-30T00:59:42;10.87;;;7.73;;
48945;SDS011;34999;50.940;3.998;2024-01-30T01:02:11;9.63;;;7.47;;
48945;SDS011;34999;50.940;3.998;2024-01-30T01:04:41;11.37;;;8.07;;
48945;SDS011;34999;50.940;3.998;2024-01-30T01:07:10;12.90;;;8.47;;
48945;SDS011;34999;50.940;3.998;2024-01-30T01:09:39;10.40;;;7.83;;
48945;SDS011;34999;50.940;3.998;2024-01-30T01:12:07;10.20;;;7.77;;
48945;SDS011;34999;50.940;3.998;2024-01-30T01:14:36;11.63;;;7.53;;
48945;SDS011;34999;50.940;3.998;2024-01-30T01:17:04;8.40;;;7.40;;
48945;SDS011;34999;50.940;3.998;2024-01-30T01:19:33;9.63;;;7.43;;
48945;SDS011;34999;50.940;3.998;2024-01-30T01:22:02;10.17;;;7.30;;
48945;SDS011;34999;50.940;3.998;2024-01-30T01:24:31;10.50;;;7.77;;
48945;SDS011;34999;50.940;3.998;2024-01-30T01:26:59;11.50;;;7.60;;
48945;SDS011;34999;50.940;3.998;2024-01-30T01:29:28;10.50;;;7.27;;
48945;SDS011;34999;50.940;3.998;2024-01-30T01:31:56;9.67;;;7.17;;
48945;SDS011;34999;50.940;3.998;2024-01-30T01:34:25;8.50;;;7.30;;
48945;SDS011;34999;50.940;3.998;2024-01-30T01:36:57;10.33;;;7.70;;
48945;SDS011;34999;50.940;3.998;2024-01-30T01:39:27;10.03;;;7.00;;
48945;SDS011;34999;50.940;3.998;2024-01-30T01:41:56;10.10;;;7.20;;
48945;SDS011;34999;50.940;3.998;2024-01-30T01:44:26;11.47;;;7.67;;
48945;SDS011;34999;50.940;3.998;2024-01-30T01:46:54;10.23;;;7.50;;
48945;SDS011;34999;50.940;3.998;2024-01-30T01:49:24;9.33;;;7.50;;
48945;SDS011;34999;50.940;3.998;2024-01-30T01:51:55;10.00;;;7.50;;
48945;SDS011;34999;50.940;3.998;2024-01-30T01:54:24;12.10;;;7.60;;
48945;SDS011;34999;50.940;3.998;2024-01-30T01:56:55;12.53;;;7.70;;
48945;SDS011;34999;50.940;3.998;2024-01-30T01:59:24;12.60;;;7.47;;
48945;SDS011;34999;50.940;3.998;2024-01-30T02:01:54;9.20;;;7.43;;
48945;SDS011;34999;50.940;3.998;2024-01-30T02:04:23;10.60;;;7.50;;
48945;SDS011;34999;50.940;3.998;2024-01-30T02:06:52;9.00;;;7.50;;
48945;SDS011;34999;50.940;3.998;2024-01-30T02:09:22;9.27;;;7.90;;
48945;SDS011;34999;50.940;3.998;2024-01-30T02:11:51;9.73;;;7.73;;
48945;SDS011;34999;50.940;3.998;2024-01-30T02:14:21;13.13;;;8.00;;
48945;SDS011;34999;50.940;3.998;2024-01-30T02:16:51;11.37;;;7.07;;
48945;SDS011;34999;50.940;3.998;2024-01-30T02:19:20;9.87;;;7.63;;
48945;SDS011;34999;50.940;3.998;2024-01-30T02:21:49;10.80;;;7.33;;
48945;SDS011;34999;50.940;3.998;2024-01-30T02:24:18;8.90;;;7.23;;
48945;SDS011;34999;50.940;3.998;2024-01-30T02:26:46;9.57;;;7.40;;
48945;SDS011;34999;50.940;3.998;2024-01-30T02:29:13;15.33;;;8.10;;
48945;SDS011;34999;50.940;3.998;2024-01-30T02:31:41;9.67;;;7.37;;
48945;SDS011;34999;50.940;3.998;2024-01-30T02:34:12;9.03;;;7.20;;
48945;SDS011;34999;50.940;3.998;2024-01-30T02:36:42;10.93;;;7.40;;
48945;SDS011;34999;50.940;3.998;2024-01-30T02:39:11;10.03;;;7.50;;
48945;SDS011;34999;50.940;3.998;2024-01-30T02:41:40;10.57;;;7.50;;
48945;SDS011;34999;50.940;3.998;2024-01-30T02:44:08;8.77;;;7.53;;
48945;SDS011;34999;50.940;3.998;2024-01-30T02:46:36;10.83;;;6.70;;
48945;SDS011;34999;50.940;3.998;2024-01-30T02:49:04;8.77;;;6.97;;
48945;SDS011;34999;50.940;3.998;2024-01-30T02:51:33;9.13;;;6.90;;
48945;SDS011;34999;50.940;3.998;2024-01-30T02:54:01;9.90;;;7.00;;
48945;SDS011;34999;50.940;3.998;2024-01-30T02:56:31;11.20;;;7.33;;
48945;SDS011;34999;50.940;3.998;2024-01-30T02:58:59;7.60;;;6.77;;
48945;SDS011;34999;50.940;3.998;2024-01-30T03:01:27;9.40;;;7.00;;
48945;SDS011;34999;50.940;3.998;2024-01-30T03:03:55;9.30;;;7.17;;
48945;SDS011;34999;50.940;3.998;2024-01-30T03:06:23;10.50;;;7.10;;
48945;SDS011;34999;50.940;3.998;2024-01-30T03:08:52;10.67;;;6.60;;
48945;SDS011;34999;50.940;3.998;2024-01-30T03:11:22;11.20;;;6.90;;
48945;SDS011;34999;50.940;3.998;2024-01-30T03:13:52;7.33;;;6.27;;
48945;SDS011;34999;50.940;3.998;2024-01-30T03:16:20;8.30;;;6.83;;
48945;SDS011;34999;50.940;3.998;2024-01-30T03:18:48;7.27;;;6.57;;
48945;SDS011;34999;50.940;3.998;2024-01-30T03:21:17;13.67;;;7.30;;
48945;SDS011;34999;50.940;3.998;2024-01-30T03:23:45;7.87;;;6.70;;
48945;SDS011;34999;50.940;3.998;2024-01-30T03:26:13;9.33;;;6.90;;
48945;SDS011;34999;50.940;3.998;2024-01-30T03:28:44;9.63;;;7.13;;
48945;SDS011;34999;50.940;3.998;2024-01-30T03:31:15;9.00;;;7.03;;
48945;SDS011;34999;50.940;3.998;2024-01-30T03:33:44;11.73;;;7.10;;
48945;SDS011;34999;50.940;3.998;2024-01-30T03:36:12;9.27;;;7.13;;
48945;SDS011;34999;50.940;3.998;2024-01-30T03:38:42;9.43;;;7.10;;
48945;SDS011;34999;50.940;3.998;2024-01-30T03:41:10;7.40;;;6.70;;
48945;SDS011;34999;50.940;3.998;2024-01-30T03:43:40;9.27;;;7.27;;
48945;SDS011;34999;50.940;3.998;2024-01-30T03:46:08;10.17;;;7.23;;
48945;SDS011;34999;50.940;3.998;2024-01-30T03:48:40;8.50;;;6.70;;
48945;SDS011;34999;50.940;3.998;2024-01-30T03:51:08;12.87;;;7.30;;
48945;SDS011;34999;50.940;3.998;2024-01-30T03:53:40;11.73;;;7.17;;
48945;SDS011;34999;50.940;3.998;2024-01-30T03:56:09;7.40;;;6.70;;
48945;SDS011;34999;50.940;3.998;2024-01-30T03:58:37;8.37;;;6.73;;
48945;SDS011;34999;50.940;3.998;2024-01-30T04:01:06;8.37;;;6.60;;
48945;SDS011;34999;50.940;3.998;2024-01-30T04:03:35;8.00;;;7.20;;
48945;SDS011;34999;50.940;3.998;2024-01-30T04:06:04;7.67;;;6.40;;
48945;SDS011;34999;50.940;3.998;2024-01-30T04:08:33;8.07;;;7.03;;
48945;SDS011;34999;50.940;3.998;2024-01-30T04:11:02;11.47;;;6.80;;
48945;SDS011;34999;50.940;3.998;2024-01-30T04:13:32;8.80;;;6.87;;
48945;SDS011;34999;50.940;3.998;2024-01-30T04:16:00;11.67;;;7.53;;
48945;SDS011;34999;50.940;3.998;2024-01-30T04:18:29;8.50;;;6.57;;
48945;SDS011;34999;50.940;3.998;2024-01-30T04:20:58;10.90;;;6.60;;
48945;SDS011;34999;50.940;3.998;2024-01-30T04:23:28;10.43;;;6.93;;
48945;SDS011;34999;50.940;3.998;2024-01-30T04:25:56;10.53;;;7.40;;
48945;SDS011;34999;50.940;3.998;2024-01-30T04:28:24;10.10;;;6.37;;
48945;SDS011;34999;50.940;3.998;2024-01-30T04:30:53;11.67;;;7.13;;
48945;SDS011;34999;50.940;3.998;2024-01-30T04:33:21;10.43;;;7.23;;
48945;SDS011;34999;50.940;3.998;2024-01-30T04:35:50;8.20;;;6.70;;
48945;SDS011;34999;50.940;3.998;2024-01-30T04:38:19;9.33;;;6.47;;
48945;SDS011;34999;50.940;3.998;2024-01-30T04:40:49;7.00;;;6.30;;
48945;SDS011;34999;50.940;3.998;2024-01-30T04:43:17;10.33;;;6.73;;
48945;SDS011;34999;50.940;3.998;2024-01-30T04:45:46;12.23;;;6.67;;
48945;SDS011;34999;50.940;3.998;2024-01-30T04:48:15;12.93;;;7.00;;
48945;SDS011;34999;50.940;3.998;2024-01-30T04:50:44;8.97;;;6.80;;
48945;SDS011;34999;50.940;3.998;2024-01-30T04:53:12;9.17;;;6.73;;
48945;SDS011;34999;50.940;3.998;2024-01-30T04:55:40;8.97;;;6.50;;
48945;SDS011;34999;50.940;3.998;2024-01-30T04:58:10;9.33;;;7.33;;
48945;SDS011;34999;50.940;3.998;2024-01-30T05:00:38;11.80;;;7.10;;
48945;SDS011;34999;50.940;3.998;2024-01-30T05:03:06;9.53;;;7.27;;
48945;SDS011;34999;50.940;3.998;2024-01-30T05:05:35;8.40;;;7.20;;
48945;SDS011;34999;50.940;3.998;2024-01-30T05:08:03;7.67;;;6.97;;
48945;SDS011;34999;50.940;3.998;2024-01-30T05:10:32;10.37;;;7.27;;
48945;SDS011;34999;50.940;3.998;2024-01-30T05:13:00;10.03;;;7.50;;
48945;SDS011;34999;50.940;3.998;2024-01-30T05:15:30;10.27;;;7.43;;
48945;SDS011;34999;50.940;3.998;2024-01-30T05:17:58;9.83;;;7.07;;
48945;SDS011;34999;50.940;3.998;2024-01-30T05:20:27;10.47;;;6.90;;
48945;SDS011;34999;50.940;3.998;2024-01-30T05:22:55;8.87;;;7.10;;
48945;SDS011;34999;50.940;3.998;2024-01-30T05:25:23;8.87;;;7.23;;
48945;SDS011;34999;50.940;3.998;2024-01-30T05:27:51;8.50;;;7.03;;
48945;SDS011;34999;50.940;3.998;2024-01-30T05:30:20;9.13;;;6.93;;
48945;SDS011;34999;50.940;3.998;2024-01-30T05:32:49;13.60;;;7.60;;
48945;SDS011;34999;50.940;3.998;2024-01-30T05:35:22;10.03;;;7.30;;
48945;SDS011;34999;50.940;3.998;2024-01-30T05:37:51;8.40;;;7.37;;
48945;SDS011;34999;50.940;3.998;2024-01-30T05:40:20;10.50;;;8.00;;
48945;SDS011;34999;50.940;3.998;2024-01-30T05:42:48;9.07;;;7.23;;
48945;SDS011;34999;50.940;3.998;2024-01-30T05:45:16;10.67;;;7.60;;
48945;SDS011;34999;50.940;3.998;2024-01-30T05:47:44;10.57;;;7.53;;
48945;SDS011;34999;50.940;3.998;2024-01-30T05:50:16;9.17;;;7.13;;
48945;SDS011;34999;50.940;3.998;2024-01-30T05:52:44;11.50;;;7.87;;
48945;SDS011;34999;50.940;3.998;2024-01-30T05:55:12;8.30;;;6.77;;
48945;SDS011;34999;50.940;3.998;2024-01-30T05:57:41;11.57;;;8.20;;
48945;SDS011;34999;50.940;3.998;2024-01-30T06:00:09;9.23;;;7.17;;
48945;SDS011;34999;50.940;3.998;2024-01-30T06:02:38;9.63;;;7.70;;
48945;SDS011;34999;50.940;3.998;2024-01-30T06:05:06;13.67;;;8.07;;
48945;SDS011;34999;50.940;3.998;2024-01-30T06:07:36;9.70;;;7.93;;
48945;SDS011;34999;50.940;3.998;2024-01-30T06:10:05;10.03;;;7.60;;
48945;SDS011;34999;50.940;3.998;2024-01-30T06:12:35;8.90;;;7.57;;
48945;SDS011;34999;50.940;3.998;2024-01-30T06:15:04;12.27;;;8.07;;
48945;SDS011;34999;50.940;3.998;2024-01-30T06:17:33;8.90;;;8.00;;
48945;SDS011;34999;50.940;3.998;2024-01-30T06:20:01;10.97;;;8.20;;
48945;SDS011;34999;50.940;3.998;2024-01-30T06:22:30;9.20;;;7.80;;
48945;SDS011;34999;50.940;3.998;2024-01-30T06:25:00;10.33;;;8.10;;
48945;SDS011;34999;50.940;3.998;2024-01-30T06:27:28;11.87;;;8.27;;
48945;SDS011;34999;50.940;3.998;2024-01-30T06:29:56;8.80;;;7.90;;
48945;SDS011;34999;50.940;3.998;2024-01-30T06:32:24;13.37;;;7.97;;
48945;SDS011;34999;50.940;3.998;2024-01-30T06:34:54;10.20;;;7.90;;
48945;SDS011;34999;50.940;3.998;2024-01-30T06:37:22;12.60;;;7.53;;
48945;SDS011;34999;50.940;3.998;2024-01-30T06:39:50;10.33;;;7.50;;
48945;SDS011;34999;50.940;3.998;2024-01-30T06:42:20;10.30;;;7.77;;
48945;SDS011;34999;50.940;3.998;2024-01-30T06:44:51;11.03;;;8.03;;
48945;SDS011;34999;50.940;3.998;2024-01-30T06:47:19;11.90;;;7.90;;
48945;SDS011;34999;50.940;3.998;2024-01-30T06:49:47;12.60;;;7.63;;
48945;SDS011;34999;50.940;3.998;2024-01-30T06:52:15;10.57;;;8.20;;
48945;SDS011;34999;50.940;3.998;2024-01-30T06:54:44;9.77;;;7.60;;
48945;SDS011;34999;50.940;3.998;2024-01-30T06:57:12;14.00;;;7.97;;
48945;SDS011;34999;50.940;3.998;2024-01-30T06:59:42;8.43;;;7.50;;
48945;SDS011;34999;50.940;3.998;2024-01-30T07:02:11;11.10;;;8.23;;
48945;SDS011;34999;50.940;3.998;2024-01-30T07:04:39;11.50;;;7.93;;
48945;SDS011;34999;50.940;3.998;2024-01-30T07:07:12;8.70;;;7.67;;
48945;SDS011;34999;50.940;3.998;2024-01-30T07:09:42;12.27;;;7.93;;
48945;SDS011;34999;50.940;3.998;2024-01-30T07:12:10;13.07;;;8.73;;
48945;SDS011;34999;50.940;3.998;2024-01-30T07:14:38;11.93;;;8.57;;
48945;SDS011;34999;50.940;3.998;2024-01-30T07:17:08;12.47;;;8.07;;
48945;SDS011;34999;50.940;3.998;2024-01-30T07:19:36;15.50;;;7.90;;
48945;SDS011;34999;50.940;3.998;2024-01-30T07:22:08;8.20;;;7.10;;
48945;SDS011;34999;50.940;3.998;2024-01-30T07:24:36;10.93;;;7.70;;
48945;SDS011;34999;50.940;3.998;2024-01-30T07:27:11;11.17;;;7.77;;
48945;SDS011;34999;50.940;3.998;2024-01-30T07:29:41;10.37;;;8.03;;
48945;SDS011;34999;50.940;3.998;2024-01-30T07:32:11;10.70;;;8.00;;
48945;SDS011;34999;50.940;3.998;2024-01-30T07:34:39;10.50;;;8.03;;
48945;SDS011;34999;50.940;3.998;2024-01-30T07:37:24;10.87;;;7.53;;
48945;SDS011;34999;50.940;3.998;2024-01-30T07:39:52;12.77;;;7.90;;
48945;SDS011;34999;50.940;3.998;2024-01-30T07:42:21;10.33;;;8.03;;
48945;SDS011;34999;50.940;3.998;2024-01-30T07:44:49;10.60;;;7.97;;
48945;SDS011;34999;50.940;3.998;2024-01-30T07:47:18;12.80;;;7.80;;
48945;SDS011;34999;50.940;3.998;2024-01-30T07:49:47;9.97;;;7.60;;
48945;SDS011;34999;50.940;3.998;2024-01-30T07:52:15;10.57;;;7.10;;
48945;SDS011;34999;50.940;3.998;2024-01-30T07:54:50;12.13;;;7.97;;
48945;SDS011;34999;50.940;3.998;2024-01-30T07:57:18;11.97;;;7.77;;
48945;SDS011;34999;50.940;3.998;2024-01-30T07:59:46;14.23;;;8.23;;
48945;SDS011;34999;50.940;3.998;2024-01-30T08:02:15;25.33;;;7.93;;
48945;SDS011;34999;50.940;3.998;2024-01-30T08:04:44;10.40;;;7.77;;
48945;SDS011;34999;50.940;3.998;2024-01-30T08:07:15;14.10;;;8.07;;
48945;SDS011;34999;50.940;3.998;2024-01-30T08:09:44;12.30;;;7.67;;
48945;SDS011;34999;50.940;3.998;2024-01-30T08:12:13;9.97;;;7.57;;
48945;SDS011;34999;50.940;3.998;2024-01-30T08:14:41;15.03;;;8.30;;
48945;SDS011;34999;50.940;3.998;2024-01-30T08:17:09;13.70;;;7.50;;
48945;SDS011;34999;50.940;3.998;2024-01-30T08:19:38;13.30;;;7.90;;
48945;SDS011;34999;50.940;3.998;2024-01-30T08:22:07;14.00;;;7.90;;
48945;SDS011;34999;50.940;3.998;2024-01-30T08:24:36;11.63;;;8.20;;
48945;SDS011;34999;50.940;3.998;2024-01-30T08:27:04;13.07;;;7.37;;
48945;SDS011;34999;50.940;3.998;2024-01-30T08:29:33;14.13;;;7.50;;
48945;SDS011;34999;50.940;3.998;2024-01-30T08:32:01;15.30;;;8.13;;
48945;SDS011;34999;50.940;3.998;2024-01-30T08:34:29;13.17;;;8.03;;
48945;SDS011;34999;50.940;3.998;2024-01-30T08:36:58;12.67;;;8.03;;
48945;SDS011;34999;50.940;3.998;2024-01-30T08:39:27;13.23;;;7.97;;
48945;SDS011;34999;50.940;3.998;2024-01-30T08:41:56;12.97;;;8.47;;
48945;SDS011;34999;50.940;3.998;2024-01-30T08:44:25;11.67;;;8.20;;
48945;SDS011;34999;50.940;3.998;2024-01-30T08:46:53;13.37;;;8.10;;
48945;SDS011;34999;50.940;3.998;2024-01-30T08:49:23;11.57;;;8.10;;
48945;SDS011;34999;50.940;3.998;2024-01-30T08:51:51;11.07;;;8.17;;
48945;SDS011;34999;50.940;3.998;2024-01-30T08:54:20;14.00;;;8.67;;
48945;SDS011;34999;50.940;3.998;2024-01-30T08:56:50;15.47;;;8.30;;
48945;SDS011;34999;50.940;3.998;2024-01-30T08:59:18;16.73;;;9.07;;
48945;SDS011;34999;50.940;3.998;2024-01-30T09:01:47;15.77;;;8.57;;
48945;SDS011;34999;50.940;3.998;2024-01-30T09:04:29;11.57;;;8.80;;
48945;SDS011;34999;50.940;3.998;2024-01-30T09:06:57;12.43;;;8.20;;
48945;SDS011;34999;50.940;3.998;2024-01-30T09:09:26;13.13;;;8.80;;
48945;SDS011;34999;50.940;3.998;2024-01-30T09:11:55;13.50;;;9.13;;
48945;SDS011;34999;50.940;3.998;2024-01-30T09:14:28;13.37;;;8.93;;
48945;SDS011;34999;50.940;3.998;2024-01-30T09:16:58;12.27;;;9.50;;
48945;SDS011;34999;50.940;3.998;2024-01-30T09:19:26;19.07;;;10.77;;
48945;SDS011;34999;50.940;3.998;2024-01-30T09:21:55;14.87;;;9.73;;
48945;SDS011;34999;50.940;3.998;2024-01-30T09:24:23;21.17;;;10.50;;
48945;SDS011;34999;50.940;3.998;2024-01-30T09:26:51;19.50;;;11.00;;
48945;SDS011;34999;50.940;3.998;2024-01-30T09:29:21;17.33;;;10.60;;
48945;SDS011;34999;50.940;3.998;2024-01-30T09:31:49;14.17;;;9.97;;
48945;SDS011;34999;50.940;3.998;2024-01-30T09:34:17;23.87;;;10.20;;
48945;SDS011;34999;50.940;3.998;2024-01-30T09:36:46;18.50;;;9.97;;
48945;SDS011;34999;50.940;3.998;2024-01-30T09:39:14;17.67;;;9.53;;
48945;SDS011;34999;50.940;3.998;2024-01-30T09:41:44;14.87;;;9.27;;
48945;SDS011;34999;50.940;3.998;2024-01-30T09:44:16;18.03;;;8.87;;
48945;SDS011;34999;50.940;3.998;2024-01-30T09:46:47;17.60;;;7.40;;
48945;SDS011;34999;50.940;3.998;2024-01-30T09:49:15;17.60;;;7.93;;
48945;SDS011;34999;50.940;3.998;2024-01-30T09:51:47;12.50;;;7.30;;
48945;SDS011;34999;50.940;3.998;2024-01-30T09:54:16;12.00;;;6.80;;
48945;SDS011;34999;50.940;3.998;2024-01-30T09:56:45;12.37;;;6.00;;
48945;SDS011;34999;50.940;3.998;2024-01-30T09:59:14;11.13;;;6.67;;
48945;SDS011;34999;50.940;3.998;2024-01-30T10:01:43;19.70;;;6.30;;
48945;SDS011;34999;50.940;3.998;2024-01-30T10:04:13;12.23;;;5.97;;
48945;SDS011;34999;50.940;3.998;2024-01-30T10:06:41;12.27;;;5.90;;
48945;SDS011;34999;50.940;3.998;2024-01-30T10:09:10;10.77;;;6.03;;
48945;SDS011;34999;50.940;3.998;2024-01-30T10:11:39;12.63;;;5.97;;
48945;SDS011;34999;50.940;3.998;2024-01-30T10:14:08;12.80;;;5.83;;
48945;SDS011;34999;50.940;3.998;2024-01-30T10:16:37;9.40;;;4.73;;
48945;SDS011;34999;50.940;3.998;2024-01-30T10:19:05;13.47;;;4.80;;
48945;SDS011;34999;50.940;3.998;2024-01-30T10:21:35;5.83;;;3.47;;
48945;SDS011;34999;50.940;3.998;2024-01-30T10:24:05;9.20;;;2.60;;
48945;SDS011;34999;50.940;3.998;2024-01-30T10:26:34;6.37;;;2.20;;
48945;SDS011;34999;50.940;3.998;2024-01-30T10:29:04;4.83;;;2.33;;
48945;SDS011;34999;50.940;3.998;2024-01-30T10:31:32;5.27;;;2.07;;
48945;SDS011;34999;50.940;3.998;2024-01-30T10:34:01;7.13;;;2.03;;
48945;SDS011;34999;50.940;3.998;2024-01-30T10:36:43;3.87;;;1.67;;
48945;SDS011;34999;50.940;3.998;2024-01-30T10:39:17;2.43;;;1.90;;
48945;SDS011;34999;50.940;3.998;2024-01-30T10:41:47;1.50;;;1.40;;
48945;SDS011;34999;50.940;3.998;2024-01-30T10:44:18;1.77;;;1.33;;
48945;SDS011;34999;50.940;3.998;2024-01-30T10:46:51;2.00;;;1.40;;
48945;SDS011;34999;50.940;3.998;2024-01-30T10:49:28;2.93;;;1.27;;
48945;SDS011;34999;50.940;3.998;2024-01-30T10:51:58;1.50;;;1.30;;
48945;SDS011;34999;50.940;3.998;2024-01-30T10:54:27;3.60;;;1.20;;
48945;SDS011;34999;50.940;3.998;2024-01-30T10:56:57;2.93;;;1.23;;
48945;SDS011;34999;50.940;3.998;2024-01-30T10:59:30;4.63;;;1.47;;
48945;SDS011;34999;50.940;3.998;2024-01-30T11:01:59;5.83;;;1.70;;
48945;SDS011;34999;50.940;3.998;2024-01-30T11:04:35;2.30;;;1.30;;
48945;SDS011;34999;50.940;3.998;2024-01-30T11:07:15;3.37;;;1.40;;
48945;SDS011;34999;50.940;3.998;2024-01-30T11:09:49;4.20;;;1.40;;
48945;SDS011;34999;50.940;3.998;2024-01-30T11:12:21;1.27;;;1.20;;
48945;SDS011;34999;50.940;3.998;2024-01-30T11:14:50;1.30;;;1.30;;
48945;SDS011;34999;50.940;3.998;2024-01-30T11:17:40;3.70;;;1.30;;
48945;SDS011;34999;50.940;3.998;2024-01-30T11:20:14;1.60;;;1.27;;
48945;SDS011;34999;50.940;3.998;2024-01-30T11:22:47;4.50;;;1.30;;
48945;SDS011;34999;50.940;3.998;2024-01-30T11:25:16;1.93;;;1.23;;
48945;SDS011;34999;50.940;3.998;2024-01-30T11:27:45;3.00;;;1.20;;
48945;SDS011;34999;50.940;3.998;2024-01-30T11:30:23;7.03;;;1.40;;
48945;SDS011;34999;50.940;3.998;2024-01-30T11:32:58;3.13;;;1.20;;
48945;SDS011;34999;50.940;3.998;2024-01-30T11:35:29;3.90;;;1.30;;
48945;SDS011;34999;50.940;3.998;2024-01-30T11:38:00;2.00;;;1.33;;
48945;SDS011;34999;50.940;3.998;2024-01-30T11:40:30;1.63;;;1.30;;
48945;SDS011;34999;50.940;3.998;2024-01-30T11:43:00;4.63;;;1.53;;
48945;SDS011;34999;50.940;3.998;2024-01-30T11:45:29;1.63;;;1.20;;
48945;SDS011;34999;50.940;3.998;2024-01-30T11:47:57;1.30;;;1.20;;
48945;SDS011;34999;50.940;3.998;2024-01-30T11:50:28;3.50;;;1.30;;
48945;SDS011;34999;50.940;3.998;2024-01-30T11:52:56;9.87;;;1.63;;
48945;SDS011;34999;50.940;3.998;2024-01-30T11:55:27;5.27;;;1.67;;
48945;SDS011;34999;50.940;3.998;2024-01-30T11:58:01;4.00;;;1.20;;
48945;SDS011;34999;50.940;3.998;2024-01-30T12:00:30;2.63;;;1.33;;
48945;SDS011;34999;50.940;3.998;2024-01-30T12:03:00;1.53;;;1.43;;
48945;SDS011;34999;50.940;3.998;2024-01-30T12:05:30;3.67;;;1.40;;
48945;SDS011;34999;50.940;3.998;2024-01-30T12:07:58;2.03;;;1.30;;
48945;SDS011;34999;50.940;3.998;2024-01-30T12:10:30;4.80;;;1.47;;
48945;SDS011;34999;50.940;3.998;2024-01-30T12:12:58;2.70;;;1.40;;
48945;SDS011;34999;50.940;3.998;2024-01-30T12:15:27;2.83;;;1.27;;
48945;SDS011;34999;50.940;3.998;2024-01-30T12:18:03;2.20;;;1.30;;
48945;SDS011;34999;50.940;3.998;2024-01-30T12:20:32;2.30;;;1.30;;
48945;SDS011;34999;50.940;3.998;2024-01-30T12:23:01;1.67;;;1.50;;
48945;SDS011;34999;50.940;3.998;2024-01-30T12:25:31;2.40;;;1.47;;
48945;SDS011;34999;50.940;3.998;2024-01-30T12:27:59;5.20;;;1.43;;
48945;SDS011;34999;50.940;3.998;2024-01-30T12:30:27;2.00;;;1.50;;
48945;SDS011;34999;50.940;3.998;2024-01-30T12:32:56;6.60;;;1.53;;
48945;SDS011;34999;50.940;3.998;2024-01-30T12:35:25;5.67;;;1.60;;
48945;SDS011;34999;50.940;3.998;2024-01-30T12:37:58;4.40;;;1.30;;
48945;SDS011;34999;50.940;3.998;2024-01-30T12:40:26;1.90;;;1.50;;
48945;SDS011;34999;50.940;3.998;2024-01-30T12:42:56;2.10;;;1.20;;
48945;SDS011;34999;50.940;3.998;2024-01-30T12:45:25;3.60;;;1.40;;
48945;SDS011;34999;50.940;3.998;2024-01-30T12:47:53;5.33;;;1.60;;
48945;SDS011;34999;50.940;3.998;2024-01-30T12:50:21;1.87;;;1.50;;
48945;SDS011;34999;50.940;3.998;2024-01-30T12:52:50;2.20;;;1.90;;
48945;SDS011;34999;50.940;3.998;2024-01-30T12:55:19;3.03;;;1.70;;
48945;SDS011;34999;50.940;3.998;2024-01-30T12:57:47;2.77;;;1.70;;
48945;SDS011;34999;50.940;3.998;2024-01-30T13:00:17;1.83;;;1.73;;
48945;SDS011;34999;50.940;3.998;2024-01-30T13:02:45;5.70;;;2.03;;
48945;SDS011;34999;50.940;3.998;2024-01-30T13:05:15;6.93;;;1.80;;
48945;SDS011;34999;50.940;3.998;2024-01-30T13:07:43;3.23;;;2.20;;
48945;SDS011;34999;50.940;3.998;2024-01-30T13:10:12;3.90;;;2.00;;
48945;SDS011;34999;50.940;3.998;2024-01-30T13:12:40;5.53;;;2.23;;
48945;SDS011;34999;50.940;3.998;2024-01-30T13:15:08;2.83;;;1.97;;
48945;SDS011;34999;50.940;3.998;2024-01-30T13:17:39;4.87;;;2.17;;
48945;SDS011;34999;50.940;3.998;2024-01-30T13:20:09;2.43;;;1.90;;
48945;SDS011;34999;50.940;3.998;2024-01-30T13:22:38;8.23;;;2.40;;
48945;SDS011;34999;50.940;3.998;2024-01-30T13:25:06;2.43;;;1.60;;
48945;SDS011;34999;50.940;3.998;2024-01-30T13:27:35;2.00;;;1.77;;
48945;SDS011;34999;50.940;3.998;2024-01-30T13:30:06;3.23;;;1.83;;
48945;SDS011;34999;50.940;3.998;2024-01-30T13:32:35;6.33;;;1.90;;
48945;SDS011;34999;50.940;3.998;2024-01-30T13:35:05;1.93;;;1.70;;
48945;SDS011;34999;50.940;3.998;2024-01-30T13:37:34;2.47;;;1.60;;
48945;SDS011;34999;50.940;3.998;2024-01-30T13:40:03;12.03;;;2.13;;
48945;SDS011;34999;50.940;3.998;2024-01-30T13:42:37;4.60;;;1.87;;
48945;SDS011;34999;50.940;3.998;2024-01-30T13:45:05;5.83;;;1.80;;
48945;SDS011;34999;50.940;3.998;2024-01-30T13:47:36;7.53;;;2.27;;
48945;SDS011;34999;50.940;3.998;2024-01-30T13:50:07;3.27;;;2.67;;
48945;SDS011;34999;50.940;3.998;2024-01-30T13:52:37;5.97;;;2.40;;
48945;SDS011;34999;50.940;3.998;2024-01-30T13:55:10;10.37;;;2.50;;
48945;SDS011;34999;50.940;3.998;2024-01-30T13:57:39;3.47;;;2.40;;
48945;SDS011;34999;50.940;3.998;2024-01-30T14:00:08;8.00;;;2.53;;
48945;SDS011;34999;50.940;3.998;2024-01-30T14:02:37;6.13;;;2.70;;
48945;SDS011;34999;50.940;3.998;2024-01-30T14:05:08;2.00;;;1.80;;
48945;SDS011;34999;50.940;3.998;2024-01-30T14:07:36;7.60;;;2.30;;
48945;SDS011;34999;50.940;3.998;2024-01-30T14:10:07;4.07;;;1.90;;
48945;SDS011;34999;50.940;3.998;2024-01-30T14:12:41;5.13;;;2.10;;
48945;SDS011;34999;50.940;3.998;2024-01-30T14:15:10;2.43;;;1.90;;
48945;SDS011;34999;50.940;3.998;2024-01-30T14:17:53;1.97;;;1.87;;
48945;SDS011;34999;50.940;3.998;2024-01-30T14:20:23;4.30;;;2.00;;
48945;SDS011;34999;50.940;3.998;2024-01-30T14:22:51;2.40;;;2.17;;
48945;SDS011;34999;50.940;3.998;2024-01-30T14:25:22;4.93;;;2.13;;
48945;SDS011;34999;50.940;3.998;2024-01-30T14:27:51;5.10;;;1.90;;
48945;SDS011;34999;50.940;3.998;2024-01-30T14:30:19;2.10;;;1.90;;
48945;SDS011;34999;50.940;3.998;2024-01-30T14:32:48;2.93;;;1.90;;
48945;SDS011;34999;50.940;3.998;2024-01-30T14:35:16;4.10;;;2.10;;
48945;SDS011;34999;50.940;3.998;2024-01-30T14:37:49;5.60;;;2.50;;
48945;SDS011;34999;50.940;3.998;2024-01-30T14:40:18;6.17;;;2.07;;
48945;SDS011;34999;50.940;3.998;2024-01-30T14:42:46;4.27;;;2.13;;
48945;SDS011;34999;50.940;3.998;2024-01-30T14:45:15;3.93;;;2.30;;
48945;SDS011;34999;50.940;3.998;2024-01-30T14:47:43;3.17;;;2.00;;
48945;SDS011;34999;50.940;3.998;2024-01-30T14:50:13;4.23;;;2.10;;
48945;SDS011;34999;50.940;3.998;2024-01-30T14:52:43;5.30;;;2.10;;